sensor_id;sensor_type;location;lat;lon;timestamp;P1;durP1;ratioP1;P2;durP2;ratioP2
6442;SDS011;3254;47.372;8.512;2023-02-28T00:02:21;9.73;;;5.80;;
6442;SDS011;3254;47.372;8.512;2023-02-28T00:04:47;7.87;;;6.17;;
6442;SDS011;3254;47.372;8.512;2023-02-28T00:07:18;9.50;;;5.97;;
6442;SDS011;3254;47.372;8.512;2023-02-28T00:09:44;6.25;;;5.63;;
6442;SDS011;3254;47.372;8.512;2023-02-28T00:12:09;6.30;;;5.70;;
6442;SDS011;3254;47.372;8.512;2023-02-28T00:14:35;5.40;;;5.10;;
6442;SDS011;3254;47.372;8.512;2023-02-28T00:17:01;7.35;;;5.93;;
6442;SDS011;3254;47.372;8.512;2023-02-28T00:19:27;6.30;;;5.70;;
6442;SDS011;3254;47.372;8.512;2023-02-28T00:21:52;6.93;;;6.23;;
6442;SDS011;3254;47.372;8.512;2023-02-28T00:24:18;5.93;;;5.33;;
6442;SDS011;3254;47.372;8.512;2023-02-28T00:26:43;8.97;;;6.07;;
6442;SDS011;3254;47.372;8.512;2023-02-28T00:29:09;5.97;;;5.57;;
6442;SDS011;3254;47.372;8.512;2023-02-28T00:31:35;7.47;;;5.60;;
6442;SDS011;3254;47.372;8.512;2023-02-28T00:34:00;7.03;;;6.43;;
6442;SDS011;3254;47.372;8.512;2023-02-28T00:36:26;6.37;;;5.77;;
6442;SDS011;3254;47.372;8.512;2023-02-28T00:38:51;17.50;;;5.50;;
6442;SDS011;3254;47.372;8.512;2023-02-28T00:41:17;6.67;;;6.13;;
6442;SDS011;3254;47.372;8.512;2023-02-28T00:43:43;6.77;;;6.00;;
6442;SDS011;3254;47.372;8.512;2023-02-28T00:46:08;6.60;;;6.10;;
6442;SDS011;3254;47.372;8.512;2023-02-28T00:48:34;6.40;;;5.80;;
6442;SDS011;3254;47.372;8.512;2023-02-28T00:51:00;5.70;;;5.20;;
6442;SDS011;3254;47.372;8.512;2023-02-28T00:53:26;5.45;;;5.05;;
6442;SDS011;3254;47.372;8.512;2023-02-28T00:55:52;7.15;;;6.10;;
6442;SDS011;3254;47.372;8.512;2023-02-28T00:58:18;6.40;;;5.80;;
6442;SDS011;3254;47.372;8.512;2023-02-28T01:00:43;8.00;;;6.60;;
6442;SDS011;3254;47.372;8.512;2023-02-28T01:03:13;7.18;;;6.50;;
6442;SDS011;3254;47.372;8.512;2023-02-28T01:05:40;6.07;;;5.57;;
6442;SDS011;3254;47.372;8.512;2023-02-28T01:08:06;5.70;;;5.30;;
6442;SDS011;3254;47.372;8.512;2023-02-28T01:10:32;6.47;;;6.00;;
6442;SDS011;3254;47.372;8.512;2023-02-28T01:12:57;7.17;;;6.57;;
6442;SDS011;3254;47.372;8.512;2023-02-28T01:15:23;6.43;;;5.90;;
6442;SDS011;3254;47.372;8.512;2023-02-28T01:17:48;6.30;;;5.90;;
6442;SDS011;3254;47.372;8.512;2023-02-28T01:20:14;6.47;;;6.00;;
6442;SDS011;3254;47.372;8.512;2023-02-28T01:22:40;7.30;;;6.33;;
6442;SDS011;3254;47.372;8.512;2023-02-28T01:25:05;6.90;;;6.30;;
6442;SDS011;3254;47.372;8.512;2023-02-28T01:27:31;7.13;;;6.33;;
6442;SDS011;3254;47.372;8.512;2023-02-28T01:29:58;6.32;;;5.82;;
6442;SDS011;3254;47.372;8.512;2023-02-28T01:32:24;11.73;;;6.00;;
6442;SDS011;3254;47.372;8.512;2023-02-28T01:34:49;6.13;;;5.63;;
6442;SDS011;3254;47.372;8.512;2023-02-28T01:37:15;8.50;;;6.30;;
6442;SDS011;3254;47.372;8.512;2023-02-28T01:39:41;7.30;;;6.50;;
6442;SDS011;3254;47.372;8.512;2023-02-28T01:42:08;6.90;;;6.30;;
6442;SDS011;3254;47.372;8.512;2023-02-28T01:47:19;8.48;;;6.85;;
6442;SDS011;3254;47.372;8.512;2023-02-28T01:49:45;7.80;;;7.00;;
6442;SDS011;3254;47.372;8.512;2023-02-28T01:52:11;6.67;;;6.13;;
6442;SDS011;3254;47.372;8.512;2023-02-28T01:54:43;7.03;;;6.15;;
6442;SDS011;3254;47.372;8.512;2023-02-28T01:57:13;7.90;;;6.97;;
6442;SDS011;3254;47.372;8.512;2023-02-28T02:02:14;7.13;;;6.43;;
6442;SDS011;3254;47.372;8.512;2023-02-28T02:04:51;6.72;;;6.15;;
6442;SDS011;3254;47.372;8.512;2023-02-28T02:07:31;7.57;;;6.80;;
6442;SDS011;3254;47.372;8.512;2023-02-28T02:10:04;7.75;;;6.30;;
6442;SDS011;3254;47.372;8.512;2023-02-28T02:15:31;7.13;;;6.45;;
6442;SDS011;3254;47.372;8.512;2023-02-28T02:18:08;8.30;;;6.93;;
6442;SDS011;3254;47.372;8.512;2023-02-28T02:23:58;6.55;;;6.00;;
6442;SDS011;3254;47.372;8.512;2023-02-28T02:26:43;7.15;;;6.55;;
6442;SDS011;3254;47.372;8.512;2023-02-28T02:43:19;7.28;;;6.43;;
6442;SDS011;3254;47.372;8.512;2023-02-28T02:45:56;7.63;;;7.03;;
6442;SDS011;3254;47.372;8.512;2023-02-28T02:48:31;7.88;;;7.07;;
6442;SDS011;3254;47.372;8.512;2023-02-28T02:50:59;7.65;;;6.95;;
6442;SDS011;3254;47.372;8.512;2023-02-28T02:53:36;7.07;;;6.25;;
6442;SDS011;3254;47.372;8.512;2023-02-28T02:56:06;7.75;;;6.95;;
6442;SDS011;3254;47.372;8.512;2023-02-28T02:58:34;7.82;;;6.97;;
6442;SDS011;3254;47.372;8.512;2023-02-28T03:01:07;8.57;;;6.68;;
6442;SDS011;3254;47.372;8.512;2023-02-28T03:03:37;9.40;;;6.63;;
6442;SDS011;3254;47.372;8.512;2023-02-28T03:06:03;7.83;;;6.60;;
6442;SDS011;3254;47.372;8.512;2023-02-28T03:08:33;8.05;;;6.75;;
6442;SDS011;3254;47.372;8.512;2023-02-28T03:11:00;8.48;;;7.55;;
6442;SDS011;3254;47.372;8.512;2023-02-28T03:13:42;8.23;;;6.78;;
6442;SDS011;3254;47.372;8.512;2023-02-28T03:19:23;6.40;;;5.95;;
6442;SDS011;3254;47.372;8.512;2023-02-28T03:27:30;8.02;;;7.25;;
6442;SDS011;3254;47.372;8.512;2023-02-28T03:30:36;12.32;;;6.93;;
6442;SDS011;3254;47.372;8.512;2023-02-28T03:33:25;7.03;;;6.45;;
6442;SDS011;3254;47.372;8.512;2023-02-28T03:36:02;8.43;;;7.28;;
6442;SDS011;3254;47.372;8.512;2023-02-28T03:38:33;9.07;;;7.10;;
6442;SDS011;3254;47.372;8.512;2023-02-28T03:41:05;8.30;;;6.95;;
6442;SDS011;3254;47.372;8.512;2023-02-28T03:43:40;7.25;;;6.45;;
6442;SDS011;3254;47.372;8.512;2023-02-28T03:46:10;9.57;;;7.15;;
6442;SDS011;3254;47.372;8.512;2023-02-28T03:48:40;7.90;;;6.90;;
6442;SDS011;3254;47.372;8.512;2023-02-28T03:51:15;7.05;;;6.38;;
6442;SDS011;3254;47.372;8.512;2023-02-28T03:53:49;8.85;;;6.18;;
6442;SDS011;3254;47.372;8.512;2023-02-28T03:56:22;6.53;;;6.00;;
6442;SDS011;3254;47.372;8.512;2023-02-28T04:01:39;9.77;;;6.70;;
6442;SDS011;3254;47.372;8.512;2023-02-28T04:04:08;7.57;;;6.70;;
6442;SDS011;3254;47.372;8.512;2023-02-28T04:06:35;8.60;;;6.85;;
6442;SDS011;3254;47.372;8.512;2023-02-28T04:09:01;10.60;;;7.47;;
6442;SDS011;3254;47.372;8.512;2023-02-28T04:14:02;13.52;;;6.90;;
6442;SDS011;3254;47.372;8.512;2023-02-28T04:16:29;7.15;;;6.55;;
6442;SDS011;3254;47.372;8.512;2023-02-28T04:18:55;10.35;;;7.55;;
6442;SDS011;3254;47.372;8.512;2023-02-28T04:21:27;8.30;;;7.50;;
6442;SDS011;3254;47.372;8.512;2023-02-28T04:24:14;7.18;;;6.50;;
6442;SDS011;3254;47.372;8.512;2023-02-28T04:26:51;8.10;;;6.65;;
6442;SDS011;3254;47.372;8.512;2023-02-28T04:29:19;7.25;;;6.57;;
6442;SDS011;3254;47.372;8.512;2023-02-28T04:31:49;7.10;;;6.47;;
6442;SDS011;3254;47.372;8.512;2023-02-28T04:34:15;10.10;;;6.20;;
6442;SDS011;3254;47.372;8.512;2023-02-28T04:36:40;7.30;;;6.67;;
6442;SDS011;3254;47.372;8.512;2023-02-28T04:39:06;10.30;;;7.03;;
6442;SDS011;3254;47.372;8.512;2023-02-28T04:41:31;7.60;;;6.80;;
6442;SDS011;3254;47.372;8.512;2023-02-28T04:43:57;7.63;;;6.77;;
6442;SDS011;3254;47.372;8.512;2023-02-28T04:46:23;7.60;;;6.50;;
6442;SDS011;3254;47.372;8.512;2023-02-28T04:48:49;9.18;;;6.85;;
6442;SDS011;3254;47.372;8.512;2023-02-28T04:51:15;7.70;;;6.90;;
6442;SDS011;3254;47.372;8.512;2023-02-28T04:53:42;6.93;;;6.28;;
6442;SDS011;3254;47.372;8.512;2023-02-28T04:56:10;7.03;;;6.43;;
6442;SDS011;3254;47.372;8.512;2023-02-28T04:58:38;8.48;;;6.05;;
6442;SDS011;3254;47.372;8.512;2023-02-28T05:01:16;7.38;;;6.68;;
6442;SDS011;3254;47.372;8.512;2023-02-28T05:03:42;9.25;;;6.40;;
6442;SDS011;3254;47.372;8.512;2023-02-28T05:06:08;6.95;;;6.35;;
6442;SDS011;3254;47.372;8.512;2023-02-28T05:08:35;8.30;;;7.50;;
6442;SDS011;3254;47.372;8.512;2023-02-28T05:11:01;7.90;;;7.10;;
6442;SDS011;3254;47.372;8.512;2023-02-28T05:13:27;12.60;;;6.37;;
6442;SDS011;3254;47.372;8.512;2023-02-28T05:15:53;8.10;;;7.38;;
6442;SDS011;3254;47.372;8.512;2023-02-28T05:18:19;7.10;;;6.50;;
6442;SDS011;3254;47.372;8.512;2023-02-28T05:20:44;9.20;;;6.90;;
6442;SDS011;3254;47.372;8.512;2023-02-28T05:23:11;11.63;;;7.63;;
6442;SDS011;3254;47.372;8.512;2023-02-28T05:25:38;8.15;;;7.35;;
6442;SDS011;3254;47.372;8.512;2023-02-28T05:28:04;8.02;;;7.05;;
6442;SDS011;3254;47.372;8.512;2023-02-28T05:30:30;9.20;;;7.60;;
6442;SDS011;3254;47.372;8.512;2023-02-28T05:32:56;8.45;;;7.10;;
6442;SDS011;3254;47.372;8.512;2023-02-28T05:35:22;7.60;;;6.55;;
6442;SDS011;3254;47.372;8.512;2023-02-28T05:37:48;7.32;;;6.70;;
6442;SDS011;3254;47.372;8.512;2023-02-28T05:40:14;7.47;;;6.77;;
6442;SDS011;3254;47.372;8.512;2023-02-28T05:42:40;9.88;;;7.50;;
6442;SDS011;3254;47.372;8.512;2023-02-28T05:45:06;8.00;;;6.40;;
6442;SDS011;3254;47.372;8.512;2023-02-28T05:47:33;7.38;;;6.68;;
6442;SDS011;3254;47.372;8.512;2023-02-28T05:49:59;7.77;;;7.07;;
6442;SDS011;3254;47.372;8.512;2023-02-28T05:52:25;6.57;;;6.07;;
6442;SDS011;3254;47.372;8.512;2023-02-28T05:54:51;7.47;;;6.77;;
6442;SDS011;3254;47.372;8.512;2023-02-28T05:57:16;8.50;;;7.33;;
6442;SDS011;3254;47.372;8.512;2023-02-28T05:59:42;7.73;;;7.00;;
6442;SDS011;3254;47.372;8.512;2023-02-28T06:02:11;7.80;;;6.30;;
6442;SDS011;3254;47.372;8.512;2023-02-28T06:04:38;8.70;;;7.00;;
6442;SDS011;3254;47.372;8.512;2023-02-28T06:07:05;7.22;;;6.53;;
6442;SDS011;3254;47.372;8.512;2023-02-28T06:09:31;7.37;;;6.77;;
6442;SDS011;3254;47.372;8.512;2023-02-28T06:11:57;7.97;;;7.17;;
6442;SDS011;3254;47.372;8.512;2023-02-28T06:14:24;7.90;;;7.10;;
6442;SDS011;3254;47.372;8.512;2023-02-28T06:16:49;9.83;;;6.60;;
6442;SDS011;3254;47.372;8.512;2023-02-28T06:19:15;7.77;;;6.97;;
6442;SDS011;3254;47.372;8.512;2023-02-28T06:21:41;18.50;;;7.97;;
6442;SDS011;3254;47.372;8.512;2023-02-28T06:24:07;8.47;;;6.90;;
6442;SDS011;3254;47.372;8.512;2023-02-28T06:26:33;13.70;;;6.88;;
6442;SDS011;3254;47.372;8.512;2023-02-28T06:28:58;8.67;;;7.40;;
6442;SDS011;3254;47.372;8.512;2023-02-28T06:31:25;11.35;;;7.55;;
6442;SDS011;3254;47.372;8.512;2023-02-28T06:33:54;7.15;;;6.60;;
6442;SDS011;3254;47.372;8.512;2023-02-28T06:36:20;8.52;;;7.05;;
6442;SDS011;3254;47.372;8.512;2023-02-28T06:38:46;8.10;;;7.30;;
6442;SDS011;3254;47.372;8.512;2023-02-28T06:41:16;8.23;;;7.22;;
6442;SDS011;3254;47.372;8.512;2023-02-28T06:43:42;8.82;;;7.18;;
6442;SDS011;3254;47.372;8.512;2023-02-28T06:46:10;7.55;;;6.97;;
6442;SDS011;3254;47.372;8.512;2023-02-28T06:48:38;7.43;;;6.80;;
6442;SDS011;3254;47.372;8.512;2023-02-28T06:51:05;11.35;;;7.80;;
6442;SDS011;3254;47.372;8.512;2023-02-28T06:53:33;7.88;;;6.55;;
6442;SDS011;3254;47.372;8.512;2023-02-28T06:55:59;7.87;;;6.70;;
6442;SDS011;3254;47.372;8.512;2023-02-28T06:58:24;8.03;;;7.23;;
6442;SDS011;3254;47.372;8.512;2023-02-28T07:00:50;8.33;;;7.53;;
6442;SDS011;3254;47.372;8.512;2023-02-28T07:03:17;11.57;;;7.90;;
6442;SDS011;3254;47.372;8.512;2023-02-28T07:05:43;9.18;;;7.38;;
6442;SDS011;3254;47.372;8.512;2023-02-28T07:08:10;10.82;;;7.63;;
6442;SDS011;3254;47.372;8.512;2023-02-28T07:10:39;8.63;;;7.77;;
6442;SDS011;3254;47.372;8.512;2023-02-28T07:13:05;12.20;;;6.78;;
6442;SDS011;3254;47.372;8.512;2023-02-28T07:15:31;7.97;;;7.28;;
6442;SDS011;3254;47.372;8.512;2023-02-28T07:17:57;9.13;;;6.70;;
6442;SDS011;3254;47.372;8.512;2023-02-28T07:20:23;8.33;;;7.07;;
6442;SDS011;3254;47.372;8.512;2023-02-28T07:22:49;6.95;;;6.25;;
6442;SDS011;3254;47.372;8.512;2023-02-28T07:25:24;7.43;;;6.45;;
6442;SDS011;3254;47.372;8.512;2023-02-28T07:27:52;7.45;;;6.85;;
6442;SDS011;3254;47.372;8.512;2023-02-28T07:30:18;9.00;;;6.95;;
6442;SDS011;3254;47.372;8.512;2023-02-28T07:32:44;7.63;;;6.93;;
6442;SDS011;3254;47.372;8.512;2023-02-28T07:35:10;11.20;;;7.57;;
6442;SDS011;3254;47.372;8.512;2023-02-28T07:37:36;8.50;;;7.57;;
6442;SDS011;3254;47.372;8.512;2023-02-28T07:40:09;9.20;;;7.33;;
6442;SDS011;3254;47.372;8.512;2023-02-28T07:42:39;17.05;;;7.38;;
6442;SDS011;3254;47.372;8.512;2023-02-28T07:45:06;13.10;;;7.63;;
6442;SDS011;3254;47.372;8.512;2023-02-28T07:47:33;7.90;;;7.05;;
6442;SDS011;3254;47.372;8.512;2023-02-28T07:49:58;8.23;;;6.90;;
6442;SDS011;3254;47.372;8.512;2023-02-28T07:52:24;7.60;;;6.80;;
6442;SDS011;3254;47.372;8.512;2023-02-28T07:54:50;11.33;;;6.67;;
6442;SDS011;3254;47.372;8.512;2023-02-28T07:57:16;8.85;;;7.00;;
6442;SDS011;3254;47.372;8.512;2023-02-28T07:59:42;8.97;;;6.93;;
6442;SDS011;3254;47.372;8.512;2023-02-28T08:02:12;7.23;;;6.40;;
6442;SDS011;3254;47.372;8.512;2023-02-28T08:04:39;13.35;;;7.30;;
6442;SDS011;3254;47.372;8.512;2023-02-28T08:07:05;7.25;;;6.65;;
6442;SDS011;3254;47.372;8.512;2023-02-28T08:09:30;8.50;;;7.70;;
6442;SDS011;3254;47.372;8.512;2023-02-28T08:11:56;11.07;;;6.67;;
6442;SDS011;3254;47.372;8.512;2023-02-28T08:14:22;11.10;;;6.70;;
6442;SDS011;3254;47.372;8.512;2023-02-28T08:16:47;24.43;;;7.23;;
6442;SDS011;3254;47.372;8.512;2023-02-28T08:19:13;7.37;;;6.77;;
6442;SDS011;3254;47.372;8.512;2023-02-28T08:21:38;19.07;;;7.30;;
6442;SDS011;3254;47.372;8.512;2023-02-28T08:24:05;7.88;;;7.28;;
6442;SDS011;3254;47.372;8.512;2023-02-28T08:26:30;7.32;;;6.57;;
6442;SDS011;3254;47.372;8.512;2023-02-28T08:28:56;8.17;;;7.37;;
6442;SDS011;3254;47.372;8.512;2023-02-28T08:31:22;7.77;;;7.07;;
6442;SDS011;3254;47.372;8.512;2023-02-28T08:33:48;8.83;;;7.93;;
6442;SDS011;3254;47.372;8.512;2023-02-28T08:36:16;8.55;;;7.72;;
6442;SDS011;3254;47.372;8.512;2023-02-28T08:38:42;7.85;;;7.05;;
6442;SDS011;3254;47.372;8.512;2023-02-28T08:41:09;8.67;;;7.87;;
6442;SDS011;3254;47.372;8.512;2023-02-28T08:43:36;9.45;;;8.45;;
6442;SDS011;3254;47.372;8.512;2023-02-28T08:46:02;8.43;;;7.30;;
6442;SDS011;3254;47.372;8.512;2023-02-28T08:48:29;11.10;;;7.78;;
6442;SDS011;3254;47.372;8.512;2023-02-28T08:50:58;8.85;;;7.65;;
6442;SDS011;3254;47.372;8.512;2023-02-28T08:53:25;20.30;;;13.55;;
6442;SDS011;3254;47.372;8.512;2023-02-28T08:55:57;26.27;;;13.57;;
6442;SDS011;3254;47.372;8.512;2023-02-28T08:58:28;17.70;;;10.60;;
6442;SDS011;3254;47.372;8.512;2023-02-28T09:00:53;14.10;;;10.57;;
6442;SDS011;3254;47.372;8.512;2023-02-28T09:03:19;14.90;;;11.13;;
6442;SDS011;3254;47.372;8.512;2023-02-28T09:05:53;15.68;;;9.52;;
6442;SDS011;3254;47.372;8.512;2023-02-28T09:08:37;9.88;;;7.32;;
6442;SDS011;3254;47.372;8.512;2023-02-28T09:11:03;19.83;;;9.15;;
6442;SDS011;3254;47.372;8.512;2023-02-28T09:13:30;43.60;;;9.93;;
6442;SDS011;3254;47.372;8.512;2023-02-28T09:15:57;14.70;;;8.70;;
6442;SDS011;3254;47.372;8.512;2023-02-28T09:18:24;21.70;;;10.20;;
6442;SDS011;3254;47.372;8.512;2023-02-28T09:20:51;9.10;;;7.10;;
6442;SDS011;3254;47.372;8.512;2023-02-28T09:23:17;13.02;;;8.20;;
6442;SDS011;3254;47.372;8.512;2023-02-28T09:25:46;25.65;;;13.52;;
6442;SDS011;3254;47.372;8.512;2023-02-28T09:28:14;10.60;;;7.85;;
6442;SDS011;3254;47.372;8.512;2023-02-28T09:30:46;10.45;;;9.27;;
6442;SDS011;3254;47.372;8.512;2023-02-28T09:33:14;11.27;;;9.55;;
6442;SDS011;3254;47.372;8.512;2023-02-28T09:35:41;13.23;;;7.93;;
6442;SDS011;3254;47.372;8.512;2023-02-28T09:38:07;10.20;;;8.18;;
6442;SDS011;3254;47.372;8.512;2023-02-28T09:43:20;10.23;;;7.07;;
6442;SDS011;3254;47.372;8.512;2023-02-28T09:45:51;9.05;;;7.15;;
6442;SDS011;3254;47.372;8.512;2023-02-28T09:48:25;13.07;;;8.25;;
6442;SDS011;3254;47.372;8.512;2023-02-28T09:51:04;9.13;;;8.13;;
6442;SDS011;3254;47.372;8.512;2023-02-28T09:53:37;10.55;;;7.00;;
6442;SDS011;3254;47.372;8.512;2023-02-28T09:56:07;8.25;;;7.25;;
6442;SDS011;3254;47.372;8.512;2023-02-28T09:58:40;10.45;;;7.50;;
6442;SDS011;3254;47.372;8.512;2023-02-28T10:09:49;10.65;;;7.30;;
6442;SDS011;3254;47.372;8.512;2023-02-28T10:12:20;12.82;;;7.80;;
6442;SDS011;3254;47.372;8.512;2023-02-28T10:14:47;9.23;;;7.47;;
6442;SDS011;3254;47.372;8.512;2023-02-28T10:17:17;7.88;;;7.07;;
6442;SDS011;3254;47.372;8.512;2023-02-28T10:19:55;10.85;;;7.80;;
6442;SDS011;3254;47.372;8.512;2023-02-28T10:24:59;8.23;;;7.45;;
6442;SDS011;3254;47.372;8.512;2023-02-28T10:27:31;13.18;;;8.23;;
6442;SDS011;3254;47.372;8.512;2023-02-28T10:29:58;8.57;;;6.90;;
6442;SDS011;3254;47.372;8.512;2023-02-28T10:35:00;8.75;;;7.85;;
6442;SDS011;3254;47.372;8.512;2023-02-28T10:37:29;9.57;;;8.13;;
6442;SDS011;3254;47.372;8.512;2023-02-28T10:39:56;7.82;;;7.03;;
6442;SDS011;3254;47.372;8.512;2023-02-28T11:03:46;9.00;;;8.00;;
6442;SDS011;3254;47.372;8.512;2023-02-28T11:06:15;9.90;;;8.23;;
6442;SDS011;3254;47.372;8.512;2023-02-28T11:08:48;11.73;;;7.03;;
6442;SDS011;3254;47.372;8.512;2023-02-28T11:11:17;13.00;;;8.40;;
6442;SDS011;3254;47.372;8.512;2023-02-28T11:13:45;9.82;;;7.20;;
6442;SDS011;3254;47.372;8.512;2023-02-28T11:16:13;10.93;;;7.55;;
6442;SDS011;3254;47.372;8.512;2023-02-28T11:18:55;15.43;;;9.00;;
6442;SDS011;3254;47.372;8.512;2023-02-28T11:21:35;10.23;;;8.00;;
6442;SDS011;3254;47.372;8.512;2023-02-28T11:24:06;8.77;;;7.95;;
6442;SDS011;3254;47.372;8.512;2023-02-28T11:26:45;11.07;;;7.30;;
6442;SDS011;3254;47.372;8.512;2023-02-28T11:29:24;9.40;;;8.15;;
6442;SDS011;3254;47.372;8.512;2023-02-28T11:32:15;9.82;;;8.07;;
6442;SDS011;3254;47.372;8.512;2023-02-28T11:34:59;12.30;;;9.05;;
6442;SDS011;3254;47.372;8.512;2023-02-28T11:37:40;15.60;;;8.57;;
6442;SDS011;3254;47.372;8.512;2023-02-28T11:40:12;12.47;;;8.53;;
6442;SDS011;3254;47.372;8.512;2023-02-28T11:42:50;8.40;;;7.60;;
6442;SDS011;3254;47.372;8.512;2023-02-28T11:45:36;9.80;;;7.57;;
6442;SDS011;3254;47.372;8.512;2023-02-28T11:50:54;8.63;;;7.50;;
6442;SDS011;3254;47.372;8.512;2023-02-28T12:23:46;9.90;;;7.90;;
6442;SDS011;3254;47.372;8.512;2023-02-28T12:26:44;9.98;;;8.13;;
6442;SDS011;3254;47.372;8.512;2023-02-28T12:31:53;9.63;;;8.10;;
6442;SDS011;3254;47.372;8.512;2023-02-28T12:34:21;9.02;;;8.13;;
6442;SDS011;3254;47.372;8.512;2023-02-28T12:36:52;22.05;;;13.95;;
6442;SDS011;3254;47.372;8.512;2023-02-28T12:41:59;13.65;;;8.85;;
6442;SDS011;3254;47.372;8.512;2023-02-28T12:44:34;10.82;;;8.60;;
6442;SDS011;3254;47.372;8.512;2023-02-28T12:47:15;11.10;;;8.30;;
6442;SDS011;3254;47.372;8.512;2023-02-28T12:49:52;15.63;;;8.65;;
6442;SDS011;3254;47.372;8.512;2023-02-28T12:52:25;9.70;;;8.70;;
6442;SDS011;3254;47.372;8.512;2023-02-28T12:55:06;13.35;;;8.48;;
6442;SDS011;3254;47.372;8.512;2023-02-28T12:57:48;12.57;;;9.20;;
6442;SDS011;3254;47.372;8.512;2023-02-28T13:00:22;10.00;;;9.00;;
6442;SDS011;3254;47.372;8.512;2023-02-28T13:03:05;9.88;;;8.60;;
6442;SDS011;3254;47.372;8.512;2023-02-28T13:14:05;11.40;;;9.32;;
6442;SDS011;3254;47.372;8.512;2023-02-28T13:16:54;10.13;;;8.60;;
6442;SDS011;3254;47.372;8.512;2023-02-28T13:19:27;11.48;;;8.27;;
6442;SDS011;3254;47.372;8.512;2023-02-28T13:21:56;11.02;;;9.13;;
6442;SDS011;3254;47.372;8.512;2023-02-28T13:27:11;9.90;;;8.90;;
6442;SDS011;3254;47.372;8.512;2023-02-28T13:29:49;9.90;;;8.32;;
6442;SDS011;3254;47.372;8.512;2023-02-28T13:32:19;11.90;;;9.15;;
6442;SDS011;3254;47.372;8.512;2023-02-28T13:39:54;14.77;;;8.88;;
6442;SDS011;3254;47.372;8.512;2023-02-28T13:43:02;12.25;;;8.32;;
6442;SDS011;3254;47.372;8.512;2023-02-28T13:47:54;10.25;;;8.82;;
6442;SDS011;3254;47.372;8.512;2023-02-28T13:50:37;11.68;;;8.77;;
6442;SDS011;3254;47.372;8.512;2023-02-28T13:55:50;12.80;;;9.23;;
6442;SDS011;3254;47.372;8.512;2023-02-28T14:01:29;9.30;;;8.32;;
6442;SDS011;3254;47.372;8.512;2023-02-28T14:06:57;11.05;;;9.02;;
6442;SDS011;3254;47.372;8.512;2023-02-28T14:09:40;10.68;;;8.65;;
6442;SDS011;3254;47.372;8.512;2023-02-28T14:18:10;11.98;;;9.60;;
6442;SDS011;3254;47.372;8.512;2023-02-28T14:21:43;8.30;;;7.50;;
6442;SDS011;3254;47.372;8.512;2023-02-28T14:37:50;10.13;;;8.73;;
6442;SDS011;3254;47.372;8.512;2023-02-28T14:40:21;10.88;;;8.60;;
6442;SDS011;3254;47.372;8.512;2023-02-28T14:42:54;10.90;;;9.15;;
6442;SDS011;3254;47.372;8.512;2023-02-28T14:45:22;13.45;;;9.80;;
6442;SDS011;3254;47.372;8.512;2023-02-28T14:47:48;12.32;;;9.05;;
6442;SDS011;3254;47.372;8.512;2023-02-28T14:50:20;13.35;;;8.95;;
6442;SDS011;3254;47.372;8.512;2023-02-28T14:52:47;16.15;;;9.20;;
6442;SDS011;3254;47.372;8.512;2023-02-28T14:55:18;13.65;;;9.50;;
6442;SDS011;3254;47.372;8.512;2023-02-28T14:57:54;12.77;;;9.57;;
6442;SDS011;3254;47.372;8.512;2023-02-28T15:00:30;15.52;;;9.25;;
6442;SDS011;3254;47.372;8.512;2023-02-28T15:02:57;12.70;;;9.40;;
6442;SDS011;3254;47.372;8.512;2023-02-28T15:05:33;14.55;;;11.32;;
6442;SDS011;3254;47.372;8.512;2023-02-28T15:08:04;16.83;;;10.50;;
6442;SDS011;3254;47.372;8.512;2023-02-28T15:10:34;12.00;;;9.10;;
6442;SDS011;3254;47.372;8.512;2023-02-28T15:13:01;17.90;;;10.80;;
6442;SDS011;3254;47.372;8.512;2023-02-28T15:21:16;14.15;;;9.10;;
6442;SDS011;3254;47.372;8.512;2023-02-28T15:26:30;13.45;;;10.40;;
6442;SDS011;3254;47.372;8.512;2023-02-28T15:29:05;22.45;;;10.23;;
6442;SDS011;3254;47.372;8.512;2023-02-28T15:31:34;20.70;;;11.27;;
6442;SDS011;3254;47.372;8.512;2023-02-28T15:34:06;16.20;;;11.15;;
6442;SDS011;3254;47.372;8.512;2023-02-28T15:36:41;11.77;;;10.15;;
6442;SDS011;3254;47.372;8.512;2023-02-28T15:39:23;15.07;;;10.83;;
6442;SDS011;3254;47.372;8.512;2023-02-28T15:41:51;16.30;;;10.57;;
6442;SDS011;3254;47.372;8.512;2023-02-28T15:44:24;13.87;;;10.50;;
6442;SDS011;3254;47.372;8.512;2023-02-28T15:46:56;14.15;;;10.82;;
6442;SDS011;3254;47.372;8.512;2023-02-28T15:49:28;14.25;;;10.63;;
6442;SDS011;3254;47.372;8.512;2023-02-28T15:51:58;14.07;;;11.50;;
6442;SDS011;3254;47.372;8.512;2023-02-28T15:54:30;16.23;;;10.70;;
6442;SDS011;3254;47.372;8.512;2023-02-28T15:57:11;17.27;;;11.20;;
6442;SDS011;3254;47.372;8.512;2023-02-28T15:59:42;16.80;;;11.55;;
6442;SDS011;3254;47.372;8.512;2023-02-28T16:02:17;13.07;;;10.40;;
6442;SDS011;3254;47.372;8.512;2023-02-28T16:05:46;15.95;;;11.45;;
6442;SDS011;3254;47.372;8.512;2023-02-28T16:07:55;13.88;;;11.10;;
6442;SDS011;3254;47.372;8.512;2023-02-28T16:10:24;15.27;;;10.52;;
6442;SDS011;3254;47.372;8.512;2023-02-28T16:12:52;14.25;;;11.20;;
6442;SDS011;3254;47.372;8.512;2023-02-28T16:17:51;15.70;;;10.90;;
6442;SDS011;3254;47.372;8.512;2023-02-28T16:20:21;15.35;;;11.93;;
6442;SDS011;3254;47.372;8.512;2023-02-28T16:22:49;17.27;;;11.98;;
6442;SDS011;3254;47.372;8.512;2023-02-28T16:25:16;15.48;;;12.55;;
6442;SDS011;3254;47.372;8.512;2023-02-28T16:27:44;17.52;;;12.07;;
6442;SDS011;3254;47.372;8.512;2023-02-28T16:30:24;15.48;;;11.63;;
6442;SDS011;3254;47.372;8.512;2023-02-28T16:32:52;16.63;;;11.45;;
6442;SDS011;3254;47.372;8.512;2023-02-28T16:35:19;18.40;;;11.45;;
6442;SDS011;3254;47.372;8.512;2023-02-28T16:37:45;12.68;;;11.27;;
6442;SDS011;3254;47.372;8.512;2023-02-28T16:40:18;15.57;;;11.73;;
6442;SDS011;3254;47.372;8.512;2023-02-28T16:42:46;14.82;;;11.68;;
6442;SDS011;3254;47.372;8.512;2023-02-28T16:45:17;14.77;;;10.95;;
6442;SDS011;3254;47.372;8.512;2023-02-28T16:47:45;18.00;;;11.50;;
6442;SDS011;3254;47.372;8.512;2023-02-28T16:50:22;17.35;;;12.93;;
6442;SDS011;3254;47.372;8.512;2023-02-28T16:52:53;18.27;;;11.90;;
6442;SDS011;3254;47.372;8.512;2023-02-28T16:55:20;16.35;;;12.02;;
6442;SDS011;3254;47.372;8.512;2023-02-28T16:58:04;16.40;;;11.68;;
6442;SDS011;3254;47.372;8.512;2023-02-28T17:00:30;22.65;;;13.15;;
6442;SDS011;3254;47.372;8.512;2023-02-28T17:02:57;17.20;;;12.50;;
6442;SDS011;3254;47.372;8.512;2023-02-28T17:05:24;17.67;;;13.02;;
6442;SDS011;3254;47.372;8.512;2023-02-28T17:07:51;18.17;;;13.20;;
6442;SDS011;3254;47.372;8.512;2023-02-28T17:12:43;18.83;;;12.32;;
6442;SDS011;3254;47.372;8.512;2023-02-28T17:15:10;24.10;;;13.17;;
6442;SDS011;3254;47.372;8.512;2023-02-28T17:17:37;18.23;;;12.70;;
6442;SDS011;3254;47.372;8.512;2023-02-28T17:20:04;19.17;;;12.82;;
6442;SDS011;3254;47.372;8.512;2023-02-28T17:22:30;20.60;;;13.30;;
6442;SDS011;3254;47.372;8.512;2023-02-28T17:24:56;17.67;;;12.25;;
6442;SDS011;3254;47.372;8.512;2023-02-28T17:27:23;17.45;;;13.15;;
6442;SDS011;3254;47.372;8.512;2023-02-28T17:29:49;21.48;;;14.52;;
6442;SDS011;3254;47.372;8.512;2023-02-28T17:32:15;22.23;;;13.87;;
6442;SDS011;3254;47.372;8.512;2023-02-28T17:34:41;19.47;;;13.53;;
6442;SDS011;3254;47.372;8.512;2023-02-28T17:37:07;22.07;;;14.17;;
6442;SDS011;3254;47.372;8.512;2023-02-28T17:39:33;20.80;;;13.75;;
6442;SDS011;3254;47.372;8.512;2023-02-28T17:41:59;19.27;;;13.47;;
6442;SDS011;3254;47.372;8.512;2023-02-28T17:44:24;19.20;;;13.20;;
6442;SDS011;3254;47.372;8.512;2023-02-28T17:46:51;26.80;;;14.43;;
6442;SDS011;3254;47.372;8.512;2023-02-28T17:49:18;19.75;;;14.35;;
6442;SDS011;3254;47.372;8.512;2023-02-28T17:51:44;19.92;;;13.48;;
6442;SDS011;3254;47.372;8.512;2023-02-28T17:54:10;16.00;;;12.40;;
6442;SDS011;3254;47.372;8.512;2023-02-28T17:56:35;21.10;;;13.60;;
6442;SDS011;3254;47.372;8.512;2023-02-28T17:59:01;15.97;;;12.90;;
6442;SDS011;3254;47.372;8.512;2023-02-28T18:01:27;25.10;;;13.57;;
6442;SDS011;3254;47.372;8.512;2023-02-28T18:03:53;18.00;;;13.87;;
6442;SDS011;3254;47.372;8.512;2023-02-28T18:06:23;19.67;;;13.15;;
6442;SDS011;3254;47.372;8.512;2023-02-28T18:08:56;20.50;;;13.82;;
6442;SDS011;3254;47.372;8.512;2023-02-28T18:11:22;19.77;;;13.57;;
6442;SDS011;3254;47.372;8.512;2023-02-28T18:13:50;23.45;;;13.88;;
6442;SDS011;3254;47.372;8.512;2023-02-28T18:16:17;19.45;;;13.70;;
6442;SDS011;3254;47.372;8.512;2023-02-28T18:18:44;17.70;;;13.80;;